sensor_id;sensor_type;location;lat;lon;timestamp;P1;durP1;ratioP1;P2;durP2;ratioP2
12118;SDS011;6123;48.864;9.200;2023-06-26T00:02:05;9.10;;;8.38;;
12118;SDS011;6123;48.864;9.200;2023-06-26T00:04:31;9.90;;;9.10;;
12118;SDS011;6123;48.864;9.200;2023-06-26T00:06:57;9.00;;;8.15;;
12118;SDS011;6123;48.864;9.200;2023-06-26T00:09:23;9.32;;;8.52;;
12118;SDS011;6123;48.864;9.200;2023-06-26T00:11:49;9.43;;;8.68;;
12118;SDS011;6123;48.864;9.200;2023-06-26T00:14:15;8.57;;;7.88;;
12118;SDS011;6123;48.864;9.200;2023-06-26T00:16:41;9.38;;;8.52;;
12118;SDS011;6123;48.864;9.200;2023-06-26T00:19:07;9.43;;;8.52;;
12118;SDS011;6123;48.864;9.200;2023-06-26T00:21:33;9.43;;;8.63;;
12118;SDS011;6123;48.864;9.200;2023-06-26T00:23:59;9.07;;;8.38;;
12118;SDS011;6123;48.864;9.200;2023-06-26T00:26:25;9.52;;;8.73;;
12118;SDS011;6123;48.864;9.200;2023-06-26T00:28:51;9.70;;;8.80;;
12118;SDS011;6123;48.864;9.200;2023-06-26T00:31:18;9.60;;;8.80;;
12118;SDS011;6123;48.864;9.200;2023-06-26T00:33:44;9.05;;;8.25;;
12118;SDS011;6123;48.864;9.200;2023-06-26T00:36:10;10.20;;;9.30;;
12118;SDS011;6123;48.864;9.200;2023-06-26T00:38:36;9.63;;;8.75;;
12118;SDS011;6123;48.864;9.200;2023-06-26T00:41:02;9.43;;;8.63;;
12118;SDS011;6123;48.864;9.200;2023-06-26T00:43:28;9.70;;;8.90;;
12118;SDS011;6123;48.864;9.200;2023-06-26T00:45:54;9.48;;;8.68;;
12118;SDS011;6123;48.864;9.200;2023-06-26T00:48:20;8.93;;;8.13;;
12118;SDS011;6123;48.864;9.200;2023-06-26T00:50:46;8.68;;;8.05;;
12118;SDS011;6123;48.864;9.200;2023-06-26T00:53:12;9.80;;;7.93;;
12118;SDS011;6123;48.864;9.200;2023-06-26T00:55:38;9.30;;;8.50;;
12118;SDS011;6123;48.864;9.200;2023-06-26T00:58:04;9.05;;;8.35;;
12118;SDS011;6123;48.864;9.200;2023-06-26T01:00:30;8.43;;;7.82;;
12118;SDS011;6123;48.864;9.200;2023-06-26T01:02:56;9.25;;;8.55;;
12118;SDS011;6123;48.864;9.200;2023-06-26T01:05:24;8.20;;;7.53;;
12118;SDS011;6123;48.864;9.200;2023-06-26T01:07:50;9.48;;;8.70;;
12118;SDS011;6123;48.864;9.200;2023-06-26T01:10:16;8.57;;;7.85;;
12118;SDS011;6123;48.864;9.200;2023-06-26T01:12:42;8.50;;;7.75;;
12118;SDS011;6123;48.864;9.200;2023-06-26T01:15:08;9.05;;;8.35;;
12118;SDS011;6123;48.864;9.200;2023-06-26T01:17:36;9.27;;;8.57;;
12118;SDS011;6123;48.864;9.200;2023-06-26T01:20:03;9.00;;;8.30;;
12118;SDS011;6123;48.864;9.200;2023-06-26T01:22:34;9.23;;;8.43;;
12118;SDS011;6123;48.864;9.200;2023-06-26T01:25:29;9.18;;;8.38;;
12118;SDS011;6123;48.864;9.200;2023-06-26T01:28:03;9.07;;;8.38;;
12118;SDS011;6123;48.864;9.200;2023-06-26T01:30:30;8.68;;;7.93;;
12118;SDS011;6123;48.864;9.200;2023-06-26T01:32:57;9.63;;;8.82;;
12118;SDS011;6123;48.864;9.200;2023-06-26T01:35:24;8.65;;;7.95;;
12118;SDS011;6123;48.864;9.200;2023-06-26T01:37:50;9.70;;;8.90;;
12118;SDS011;6123;48.864;9.200;2023-06-26T01:40:16;8.55;;;7.85;;
12118;SDS011;6123;48.864;9.200;2023-06-26T01:42:42;8.93;;;8.13;;
12118;SDS011;6123;48.864;9.200;2023-06-26T01:45:15;8.82;;;8.13;;
12118;SDS011;6123;48.864;9.200;2023-06-26T01:47:48;9.13;;;8.25;;
12118;SDS011;6123;48.864;9.200;2023-06-26T01:50:17;8.55;;;7.78;;
12118;SDS011;6123;48.864;9.200;2023-06-26T01:52:49;7.82;;;7.22;;
12118;SDS011;6123;48.864;9.200;2023-06-26T01:55:24;8.25;;;7.55;;
12118;SDS011;6123;48.864;9.200;2023-06-26T01:57:51;8.82;;;8.07;;
12118;SDS011;6123;48.864;9.200;2023-06-26T02:00:18;8.77;;;8.07;;
12118;SDS011;6123;48.864;9.200;2023-06-26T02:02:45;8.60;;;7.90;;
12118;SDS011;6123;48.864;9.200;2023-06-26T02:05:11;8.25;;;7.55;;
12118;SDS011;6123;48.864;9.200;2023-06-26T02:07:38;8.50;;;7.60;;
12118;SDS011;6123;48.864;9.200;2023-06-26T02:10:04;9.10;;;8.38;;
12118;SDS011;6123;48.864;9.200;2023-06-26T02:12:30;9.77;;;8.85;;
12118;SDS011;6123;48.864;9.200;2023-06-26T02:14:56;8.98;;;8.18;;
12118;SDS011;6123;48.864;9.200;2023-06-26T02:17:22;8.68;;;7.88;;
12118;SDS011;6123;48.864;9.200;2023-06-26T02:19:48;9.48;;;8.57;;
12118;SDS011;6123;48.864;9.200;2023-06-26T02:22:14;8.90;;;8.20;;
12118;SDS011;6123;48.864;9.200;2023-06-26T02:24:40;8.45;;;7.80;;
12118;SDS011;6123;48.864;9.200;2023-06-26T02:27:06;9.20;;;8.30;;
12118;SDS011;6123;48.864;9.200;2023-06-26T02:29:32;8.93;;;7.22;;
12118;SDS011;6123;48.864;9.200;2023-06-26T02:31:58;8.45;;;7.65;;
12118;SDS011;6123;48.864;9.200;2023-06-26T02:34:24;9.38;;;8.68;;
12118;SDS011;6123;48.864;9.200;2023-06-26T02:36:50;8.93;;;8.18;;
12118;SDS011;6123;48.864;9.200;2023-06-26T02:39:19;9.43;;;8.63;;
12118;SDS011;6123;48.864;9.200;2023-06-26T02:41:45;8.63;;;7.90;;
12118;SDS011;6123;48.864;9.200;2023-06-26T02:44:11;8.80;;;8.10;;
12118;SDS011;6123;48.864;9.200;2023-06-26T02:46:37;8.95;;;8.25;;
12118;SDS011;6123;48.864;9.200;2023-06-26T02:49:03;8.50;;;7.80;;
12118;SDS011;6123;48.864;9.200;2023-06-26T02:51:31;8.52;;;7.82;;
12118;SDS011;6123;48.864;9.200;2023-06-26T02:53:57;7.72;;;7.13;;
12118;SDS011;6123;48.864;9.200;2023-06-26T02:56:23;8.35;;;7.75;;
12118;SDS011;6123;48.864;9.200;2023-06-26T02:58:49;8.50;;;7.80;;
12118;SDS011;6123;48.864;9.200;2023-06-26T03:01:15;7.30;;;6.70;;
12118;SDS011;6123;48.864;9.200;2023-06-26T03:03:41;7.97;;;7.30;;
12118;SDS011;6123;48.864;9.200;2023-06-26T03:06:07;9.07;;;8.27;;
12118;SDS011;6123;48.864;9.200;2023-06-26T03:08:36;8.70;;;7.82;;
12118;SDS011;6123;48.864;9.200;2023-06-26T03:11:02;9.00;;;8.30;;
12118;SDS011;6123;48.864;9.200;2023-06-26T03:13:28;8.82;;;8.10;;
12118;SDS011;6123;48.864;9.200;2023-06-26T03:15:54;8.32;;;7.55;;
12118;SDS011;6123;48.864;9.200;2023-06-26T03:18:20;9.70;;;8.82;;
12118;SDS011;6123;48.864;9.200;2023-06-26T03:20:46;9.07;;;8.18;;
12118;SDS011;6123;48.864;9.200;2023-06-26T03:23:13;8.93;;;8.13;;
12118;SDS011;6123;48.864;9.200;2023-06-26T03:25:39;8.20;;;7.40;;
12118;SDS011;6123;48.864;9.200;2023-06-26T03:28:05;8.43;;;7.72;;
12118;SDS011;6123;48.864;9.200;2023-06-26T03:30:31;8.05;;;7.35;;
12118;SDS011;6123;48.864;9.200;2023-06-26T03:32:57;9.02;;;8.23;;
12118;SDS011;6123;48.864;9.200;2023-06-26T03:35:23;9.10;;;8.20;;
12118;SDS011;6123;48.864;9.200;2023-06-26T03:37:49;9.30;;;8.40;;
12118;SDS011;6123;48.864;9.200;2023-06-26T03:40:15;8.60;;;7.90;;
12118;SDS011;6123;48.864;9.200;2023-06-26T03:42:42;9.82;;;9.02;;
12118;SDS011;6123;48.864;9.200;2023-06-26T03:45:08;8.55;;;7.75;;
12118;SDS011;6123;48.864;9.200;2023-06-26T03:47:34;9.10;;;8.30;;
12118;SDS011;6123;48.864;9.200;2023-06-26T03:50:00;10.70;;;8.82;;
12118;SDS011;6123;48.864;9.200;2023-06-26T03:52:26;7.97;;;7.30;;
12118;SDS011;6123;48.864;9.200;2023-06-26T03:54:52;9.40;;;8.60;;
12118;SDS011;6123;48.864;9.200;2023-06-26T03:57:18;9.15;;;8.25;;
12118;SDS011;6123;48.864;9.200;2023-06-26T03:59:44;9.10;;;8.30;;
12118;SDS011;6123;48.864;9.200;2023-06-26T04:02:11;7.72;;;7.13;;
12118;SDS011;6123;48.864;9.200;2023-06-26T04:04:37;9.27;;;8.48;;
12118;SDS011;6123;48.864;9.200;2023-06-26T04:07:03;9.25;;;8.07;;
12118;SDS011;6123;48.864;9.200;2023-06-26T04:09:29;8.80;;;8.00;;
12118;SDS011;6123;48.864;9.200;2023-06-26T04:11:56;8.70;;;8.00;;
12118;SDS011;6123;48.864;9.200;2023-06-26T04:14:22;8.88;;;8.07;;
12118;SDS011;6123;48.864;9.200;2023-06-26T04:16:48;9.07;;;8.18;;
12118;SDS011;6123;48.864;9.200;2023-06-26T04:19:14;9.48;;;8.68;;
12118;SDS011;6123;48.864;9.200;2023-06-26T04:21:40;8.93;;;8.13;;
12118;SDS011;6123;48.864;9.200;2023-06-26T04:24:06;8.07;;;7.47;;
12118;SDS011;6123;48.864;9.200;2023-06-26T04:26:32;9.25;;;8.38;;
12118;SDS011;6123;48.864;9.200;2023-06-26T04:28:59;8.57;;;7.88;;
12118;SDS011;6123;48.864;9.200;2023-06-26T04:31:25;9.05;;;8.25;;
12118;SDS011;6123;48.864;9.200;2023-06-26T04:33:51;9.30;;;8.50;;
12118;SDS011;6123;48.864;9.200;2023-06-26T04:36:19;9.32;;;8.48;;
12118;SDS011;6123;48.864;9.200;2023-06-26T04:38:46;9.15;;;8.25;;
12118;SDS011;6123;48.864;9.200;2023-06-26T04:41:13;9.13;;;8.23;;
12118;SDS011;6123;48.864;9.200;2023-06-26T04:43:39;9.32;;;8.40;;
12118;SDS011;6123;48.864;9.200;2023-06-26T04:46:05;9.75;;;8.85;;
12118;SDS011;6123;48.864;9.200;2023-06-26T04:48:32;8.93;;;8.13;;
12118;SDS011;6123;48.864;9.200;2023-06-26T04:50:58;9.13;;;8.43;;
12118;SDS011;6123;48.864;9.200;2023-06-26T04:53:24;9.00;;;8.30;;
12118;SDS011;6123;48.864;9.200;2023-06-26T04:55:50;8.63;;;7.93;;
12118;SDS011;6123;48.864;9.200;2023-06-26T04:58:17;9.60;;;8.70;;
12118;SDS011;6123;48.864;9.200;2023-06-26T05:00:43;9.00;;;8.30;;
12118;SDS011;6123;48.864;9.200;2023-06-26T05:03:09;8.65;;;7.85;;
12118;SDS011;6123;48.864;9.200;2023-06-26T05:05:35;8.77;;;7.97;;
12118;SDS011;6123;48.864;9.200;2023-06-26T05:08:12;9.10;;;8.30;;
12118;SDS011;6123;48.864;9.200;2023-06-26T05:10:39;12.40;;;10.15;;
12118;SDS011;6123;48.864;9.200;2023-06-26T05:13:05;9.27;;;8.20;;
12118;SDS011;6123;48.864;9.200;2023-06-26T05:15:31;11.60;;;10.05;;
12118;SDS011;6123;48.864;9.200;2023-06-26T05:17:57;8.25;;;7.30;;
12118;SDS011;6123;48.864;9.200;2023-06-26T05:20:23;9.43;;;8.55;;
12118;SDS011;6123;48.864;9.200;2023-06-26T05:22:49;10.05;;;9.02;;
12118;SDS011;6123;48.864;9.200;2023-06-26T05:25:16;8.98;;;8.18;;
12118;SDS011;6123;48.864;9.200;2023-06-26T05:27:46;9.20;;;8.43;;
12118;SDS011;6123;48.864;9.200;2023-06-26T05:30:13;9.80;;;8.80;;
12118;SDS011;6123;48.864;9.200;2023-06-26T05:32:40;9.32;;;8.45;;
12118;SDS011;6123;48.864;9.200;2023-06-26T05:35:06;9.35;;;8.13;;
12118;SDS011;6123;48.864;9.200;2023-06-26T05:37:33;9.98;;;8.88;;
12118;SDS011;6123;48.864;9.200;2023-06-26T05:40:00;10.98;;;9.95;;
12118;SDS011;6123;48.864;9.200;2023-06-26T05:42:28;9.73;;;8.75;;
12118;SDS011;6123;48.864;9.200;2023-06-26T05:44:55;9.52;;;8.65;;
12118;SDS011;6123;48.864;9.200;2023-06-26T05:47:21;11.18;;;9.38;;
12118;SDS011;6123;48.864;9.200;2023-06-26T05:49:47;10.02;;;8.60;;
12118;SDS011;6123;48.864;9.200;2023-06-26T05:52:13;10.38;;;9.32;;
12118;SDS011;6123;48.864;9.200;2023-06-26T05:54:39;9.13;;;8.27;;
12118;SDS011;6123;48.864;9.200;2023-06-26T05:57:05;10.95;;;9.05;;
12118;SDS011;6123;48.864;9.200;2023-06-26T05:59:31;9.63;;;8.70;;
12118;SDS011;6123;48.864;9.200;2023-06-26T06:01:58;9.18;;;8.38;;
12118;SDS011;6123;48.864;9.200;2023-06-26T06:04:24;8.43;;;7.65;;
12118;SDS011;6123;48.864;9.200;2023-06-26T06:06:50;8.77;;;7.97;;
12118;SDS011;6123;48.864;9.200;2023-06-26T06:09:15;9.65;;;8.75;;
12118;SDS011;6123;48.864;9.200;2023-06-26T09:40:46;6.35;;;5.78;;
12118;SDS011;6123;48.864;9.200;2023-06-26T09:43:13;6.22;;;5.70;;
12118;SDS011;6123;48.864;9.200;2023-06-26T09:45:39;6.30;;;5.70;;
12118;SDS011;6123;48.864;9.200;2023-06-26T09:48:05;6.45;;;5.85;;
12118;SDS011;6123;48.864;9.200;2023-06-26T09:50:35;6.72;;;6.22;;
12118;SDS011;6123;48.864;9.200;2023-06-26T09:53:12;6.35;;;5.75;;
12118;SDS011;6123;48.864;9.200;2023-06-26T09:55:38;6.30;;;5.80;;
12118;SDS011;6123;48.864;9.200;2023-06-26T09:58:08;6.85;;;6.18;;
12118;SDS011;6123;48.864;9.200;2023-06-26T10:00:43;7.63;;;5.97;;
12118;SDS011;6123;48.864;9.200;2023-06-26T10:03:12;6.18;;;5.78;;
12118;SDS011;6123;48.864;9.200;2023-06-26T10:05:38;8.25;;;6.00;;
12118;SDS011;6123;48.864;9.200;2023-06-26T10:08:05;7.32;;;6.63;;
12118;SDS011;6123;48.864;9.200;2023-06-26T10:10:32;7.25;;;6.65;;
12118;SDS011;6123;48.864;9.200;2023-06-26T10:13:02;7.60;;;6.90;;
12118;SDS011;6123;48.864;9.200;2023-06-26T10:15:33;6.78;;;6.22;;
12118;SDS011;6123;48.864;9.200;2023-06-26T10:18:00;6.88;;;6.30;;
12118;SDS011;6123;48.864;9.200;2023-06-26T10:20:32;7.55;;;6.97;;
12118;SDS011;6123;48.864;9.200;2023-06-26T10:22:59;7.90;;;6.30;;
12118;SDS011;6123;48.864;9.200;2023-06-26T10:25:28;8.23;;;7.53;;
12118;SDS011;6123;48.864;9.200;2023-06-26T10:27:57;7.93;;;7.22;;
12118;SDS011;6123;48.864;9.200;2023-06-26T10:30:26;8.30;;;7.28;;
12118;SDS011;6123;48.864;9.200;2023-06-26T10:32:54;9.15;;;6.55;;
12118;SDS011;6123;48.864;9.200;2023-06-26T10:35:27;7.75;;;7.07;;
12118;SDS011;6123;48.864;9.200;2023-06-26T10:37:54;9.48;;;7.28;;
12118;SDS011;6123;48.864;9.200;2023-06-26T10:40:27;7.82;;;7.13;;
12118;SDS011;6123;48.864;9.200;2023-06-26T10:43:06;9.55;;;6.97;;
12118;SDS011;6123;48.864;9.200;2023-06-26T10:45:36;9.73;;;7.38;;
12118;SDS011;6123;48.864;9.200;2023-06-26T10:48:07;8.18;;;7.38;;
12118;SDS011;6123;48.864;9.200;2023-06-26T10:50:33;7.70;;;7.05;;
12118;SDS011;6123;48.864;9.200;2023-06-26T10:56:01;7.70;;;6.97;;
12118;SDS011;6123;48.864;9.200;2023-06-26T11:03:39;7.63;;;6.93;;
12118;SDS011;6123;48.864;9.200;2023-06-26T11:06:26;10.02;;;6.97;;
12118;SDS011;6123;48.864;9.200;2023-06-26T11:08:53;8.43;;;7.60;;
12118;SDS011;6123;48.864;9.200;2023-06-26T11:11:55;7.97;;;7.22;;
12118;SDS011;6123;48.864;9.200;2023-06-26T11:14:18;7.68;;;7.07;;
12118;SDS011;6123;48.864;9.200;2023-06-26T11:16:45;8.90;;;7.90;;
12118;SDS011;6123;48.864;9.200;2023-06-26T11:19:11;8.52;;;7.25;;
12118;SDS011;6123;48.864;9.200;2023-06-26T11:21:38;7.85;;;7.20;;
12118;SDS011;6123;48.864;9.200;2023-06-26T11:24:04;10.85;;;7.05;;
12118;SDS011;6123;48.864;9.200;2023-06-26T11:26:32;7.93;;;7.03;;
12118;SDS011;6123;48.864;9.200;2023-06-26T11:29:03;8.43;;;7.63;;
12118;SDS011;6123;48.864;9.200;2023-06-26T11:31:33;9.10;;;7.22;;
12118;SDS011;6123;48.864;9.200;2023-06-26T11:34:05;9.10;;;7.72;;
12118;SDS011;6123;48.864;9.200;2023-06-26T11:36:38;7.93;;;7.20;;
12118;SDS011;6123;48.864;9.200;2023-06-26T11:39:07;7.68;;;7.00;;
12118;SDS011;6123;48.864;9.200;2023-06-26T11:41:33;7.75;;;6.57;;
12118;SDS011;6123;48.864;9.200;2023-06-26T11:44:08;7.50;;;6.68;;
12118;SDS011;6123;48.864;9.200;2023-06-26T11:46:37;7.50;;;6.90;;
12118;SDS011;6123;48.864;9.200;2023-06-26T11:49:06;8.50;;;7.70;;
12118;SDS011;6123;48.864;9.200;2023-06-26T11:51:32;9.23;;;7.25;;
12118;SDS011;6123;48.864;9.200;2023-06-26T11:54:00;7.88;;;7.07;;
12118;SDS011;6123;48.864;9.200;2023-06-26T11:56:26;7.82;;;7.22;;
12118;SDS011;6123;48.864;9.200;2023-06-26T12:01:35;9.18;;;7.93;;
12118;SDS011;6123;48.864;9.200;2023-06-26T12:04:09;7.45;;;6.70;;
12118;SDS011;6123;48.864;9.200;2023-06-26T12:06:37;8.13;;;6.78;;
12118;SDS011;6123;48.864;9.200;2023-06-26T12:09:05;8.48;;;7.60;;
12118;SDS011;6123;48.864;9.200;2023-06-26T12:11:36;8.00;;;7.40;;
12118;SDS011;6123;48.864;9.200;2023-06-26T12:14:04;9.32;;;7.38;;
12118;SDS011;6123;48.864;9.200;2023-06-26T12:16:31;8.50;;;7.75;;
12118;SDS011;6123;48.864;9.200;2023-06-26T12:19:05;8.05;;;7.25;;
12118;SDS011;6123;48.864;9.200;2023-06-26T12:23:39;9.40;;;7.40;;
12118;SDS011;6123;48.864;9.200;2023-06-26T12:26:17;10.93;;;6.93;;
12118;SDS011;6123;48.864;9.200;2023-06-26T12:28:44;8.55;;;7.22;;
12118;SDS011;6123;48.864;9.200;2023-06-26T12:31:16;7.22;;;6.63;;
12118;SDS011;6123;48.864;9.200;2023-06-26T12:33:45;8.50;;;6.93;;
12118;SDS011;6123;48.864;9.200;2023-06-26T12:36:13;7.70;;;7.00;;
12118;SDS011;6123;48.864;9.200;2023-06-26T12:38:40;7.15;;;6.47;;
12118;SDS011;6123;48.864;9.200;2023-06-26T12:41:11;7.30;;;6.53;;
12118;SDS011;6123;48.864;9.200;2023-06-26T12:43:39;9.65;;;6.72;;
12118;SDS011;6123;48.864;9.200;2023-06-26T12:46:05;7.32;;;6.63;;
12118;SDS011;6123;48.864;9.200;2023-06-26T12:48:37;7.63;;;6.93;;
12118;SDS011;6123;48.864;9.200;2023-06-26T12:51:12;8.07;;;7.25;;
12118;SDS011;6123;48.864;9.200;2023-06-26T12:53:42;7.32;;;6.72;;
12118;SDS011;6123;48.864;9.200;2023-06-26T12:56:08;7.50;;;6.88;;
12118;SDS011;6123;48.864;9.200;2023-06-26T12:58:34;7.30;;;6.60;;
12118;SDS011;6123;48.864;9.200;2023-06-26T13:01:05;13.90;;;6.90;;
12118;SDS011;6123;48.864;9.200;2023-06-26T13:03:39;6.75;;;6.05;;
12118;SDS011;6123;48.864;9.200;2023-06-26T13:06:05;7.20;;;6.18;;
12118;SDS011;6123;48.864;9.200;2023-06-26T13:08:31;7.45;;;6.88;;
12118;SDS011;6123;48.864;9.200;2023-06-26T13:10:58;6.50;;;6.00;;
12118;SDS011;6123;48.864;9.200;2023-06-26T13:13:24;8.50;;;6.45;;
12118;SDS011;6123;48.864;9.200;2023-06-26T13:15:49;7.72;;;6.07;;
12118;SDS011;6123;48.864;9.200;2023-06-26T13:19:17;6.82;;;6.22;;
12118;SDS011;6123;48.864;9.200;2023-06-26T13:21:42;7.28;;;6.50;;
12118;SDS011;6123;48.864;9.200;2023-06-26T13:24:08;7.72;;;6.07;;
12118;SDS011;6123;48.864;9.200;2023-06-26T13:26:34;7.03;;;6.18;;
12118;SDS011;6123;48.864;9.200;2023-06-26T13:28:59;6.57;;;5.97;;
12118;SDS011;6123;48.864;9.200;2023-06-26T13:31:26;7.32;;;6.00;;
12118;SDS011;6123;48.864;9.200;2023-06-26T13:33:52;6.25;;;5.72;;
12118;SDS011;6123;48.864;9.200;2023-06-26T13:36:18;6.13;;;5.72;;
12118;SDS011;6123;48.864;9.200;2023-06-26T13:39:23;6.55;;;6.05;;
12118;SDS011;6123;48.864;9.200;2023-06-26T13:41:49;6.57;;;5.65;;
12118;SDS011;6123;48.864;9.200;2023-06-26T13:44:14;6.40;;;5.85;;
12118;SDS011;6123;48.864;9.200;2023-06-26T13:46:40;5.55;;;5.07;;
